Station Historical Data
Daily Summary for September 5, 2017 Units:  Metric    English   Both
« Previous Day
Next Day »
Daily Weekly Monthly Yearly Custom
  High: Low: Average:
Temperature: 21.7 °C 14.4 °C 18.1 °C
Dew Point: 17.8 °C 12.1 °C 14.1 °C
Humidity: 91% 57% 78%
Wind Speed: 14.5km/h 0km/h 3.7km/h
Wind Gust: 25.7km/h - -
Wind- - WSW
Pressure: 1009.4 hPa 1002.3 hPa -
Precipitation: 0 mm    
Historical Graphs
 
 
Tabular Data for September 5, 2017
Time Temperature Dew Point Pressure Wind Wind Speed Wind Gust Humidity Rainfall Rate (Hourly)
00:04 19.4 °C 17.8 °C 1002.6 hPa SSW 4.8 km/h 9.7 km/h 90% 2.29 mm
00:09 19.4 °C 17.8 °C 1002.3 hPa WSW 3.2 km/h 6.4 km/h 90% 2.29 mm
00:14 19.3 °C 17.7 °C 1002.6 hPa West 4.8 km/h 11.3 km/h 90% 2.29 mm
00:19 19.3 °C 17.6 °C 1002.6 hPa WSW 4.8 km/h 9.7 km/h 90% 2.54 mm
00:24 19.2 °C 17.6 °C 1002.9 hPa WSW 4.8 km/h 8 km/h 90% 1.52 mm
00:29 19.2 °C 17.5 °C 1002.9 hPa West 4.8 km/h 12.9 km/h 90% 1.52 mm
00:34 19.2 °C 17.5 °C 1003.3 hPa WSW 6.4 km/h 12.9 km/h 90% 1.02 mm
00:39 19.1 °C 17.4 °C 1003.3 hPa WSW 6.4 km/h 12.9 km/h 90% 1.02 mm
00:44 19.1 °C 17.4 °C 1003.6 hPa WSW 4.8 km/h 12.9 km/h 90% 1.02 mm
00:49 19.1 °C 17.4 °C 1003.9 hPa West 9.7 km/h 14.5 km/h 90% 1.02 mm
00:54 19.1 °C 17.4 °C 1003.6 hPa NW 1.6 km/h 12.9 km/h 90% 1.27 mm
00:59 18.9 °C 17.3 °C 1003.6 hPa West 6.4 km/h 12.9 km/h 90% 1.27 mm
01:04 18.9 °C 17.2 °C 1003.6 hPa West 8 km/h 12.9 km/h 90% 2.03 mm
01:09 18.8 °C 17.2 °C 1003.6 hPa West 3.2 km/h 12.9 km/h 90% 2.03 mm
01:14 18.8 °C 17.1 °C 1003.6 hPa WNW 9.7 km/h 11.3 km/h 90% 2.03 mm
01:19 18.8 °C 17.1 °C 1003.9 hPa West 6.4 km/h 12.9 km/h 90% 1.78 mm
01:24 18.7 °C 17.1 °C 1003.6 hPa WNW 8 km/h 12.9 km/h 90% 1.78 mm
01:29 18.6 °C 16.9 °C 1003.9 hPa West 6.4 km/h 14.5 km/h 90% 1.78 mm
01:34 18.5 °C 16.8 °C 1003.9 hPa WNW 8 km/h 14.5 km/h 90% 1.78 mm
01:39 18.3 °C 16.7 °C 1004.3 hPa WNW 6.4 km/h 14.5 km/h 90% 1.78 mm
01:44 18 °C 16.2 °C 1004.6 hPa WNW 6.4 km/h 16.1 km/h 89% 1.78 mm
01:49 17.6 °C 15.8 °C 1004.6 hPa WNW 6.4 km/h 20.9 km/h 89% 1.52 mm
01:54 17.3 °C 15.5 °C 1004.3 hPa NW 6.4 km/h 20.9 km/h 89% 1.27 mm
01:59 17.1 °C 15.1 °C 1004.3 hPa NW 6.4 km/h 14.5 km/h 88% 1.27 mm
02:09 16.8 °C 14.8 °C 1004.3 hPa NW 4.8 km/h 17.7 km/h 88% 0.25 mm
02:14 16.8 °C 14.8 °C 1004.6 hPa WNW 4.8 km/h 12.9 km/h 88% 0.25 mm
02:19 16.7 °C 14.7 °C 1005 hPa WNW 3.2 km/h 11.3 km/h 88% 0.25 mm
02:24 16.6 °C 14.6 °C 1004.6 hPa NW 3.2 km/h 11.3 km/h 88% 0.25 mm
02:29 16.6 °C 14.6 °C 1004.6 hPa WNW 4.8 km/h 11.3 km/h 88% 0.25 mm
02:34 16.6 °C 14.6 °C 1004.6 hPa NW 3.2 km/h 9.7 km/h 88% 0.25 mm
02:39 16.4 °C 14.6 °C 1004.6 hPa West 3.2 km/h 8 km/h 89% 0.25 mm
02:44 16.4 °C 14.6 °C 1005 hPa West 8 km/h 8 km/h 89% 0.25 mm
02:49 16.3 °C 14.5 °C 1004.6 hPa WNW 1.6 km/h 9.7 km/h 89% 0.25 mm
02:54 16.3 °C 14.4 °C 1004.6 hPa WNW 1.6 km/h 9.7 km/h 89% 0.25 mm
02:59 16.2 °C 14.4 °C 1004.6 hPa Calm   8 km/h 89% 0.25 mm
03:04 16.2 °C 14.3 °C 1004.6 hPa West 1.6 km/h 9.7 km/h 89% 0.25 mm
03:09 16.2 °C 14.3 °C 1005 hPa WNW 3.2 km/h 9.7 km/h 89% 0 mm
03:14 16.1 °C 14.3 °C 1005 hPa WNW 4.8 km/h 11.3 km/h 89% 0 mm
03:19 16.1 °C 14.2 °C 1004.6 hPa NW 1.6 km/h 6.4 km/h 89% 0 mm
03:24 16 °C 14.2 °C 1004.6 hPa NW 1.6 km/h 8 km/h 89% 0 mm
03:29 16 °C 14.2 °C 1004.6 hPa NW 1.6 km/h 8 km/h 89% 0 mm
03:34 16 °C 14 °C 1005 hPa NW 1.6 km/h 6.4 km/h 88% 0 mm
03:39 16 °C 14 °C 1005 hPa Calm   6.4 km/h 88% 0 mm
03:44 16 °C 14 °C 1005 hPa West 3.2 km/h 8 km/h 88% 0 mm
03:49 16 °C 14 °C 1005.3 hPa Calm   6.4 km/h 88% 0 mm
03:54 16 °C 14 °C 1005 hPa Calm     88% 0 mm
03:59 15.9 °C 13.9 °C 1005 hPa Calm     88% 0 mm
04:04 15.9 °C 13.9 °C 1004.6 hPa Calm     88% 0 mm
04:09 15.8 °C 13.8 °C 1005 hPa Calm     88% 0 mm
04:14 15.8 °C 13.8 °C 1005 hPa Calm     88% 0 mm
04:19 15.8 °C 13.9 °C 1005 hPa Calm     89% 0 mm
04:24 15.7 °C 13.8 °C 1005 hPa Calm     89% 0 mm
04:29 15.6 °C 13.8 °C 1004.6 hPa Calm     89% 0 mm
04:34 15.5 °C 13.7 °C 1004.6 hPa Calm     89% 0 mm
04:39 15.4 °C 13.7 °C 1004.6 hPa Calm     89% 0 mm
04:44 15.4 °C 13.8 °C 1005 hPa Calm     90% 0 mm
04:49 15.4 °C 13.8 °C 1005 hPa Calm     90% 0 mm
04:54 15.4 °C 13.8 °C 1005 hPa Calm     90% 0 mm
04:59 15.4 °C 13.8 °C 1005 hPa Calm     90% 0 mm
05:04 15.5 °C 14.1 °C 1005.3 hPa Calm     91% 0 mm
05:09 15.4 °C 14 °C 1005.3 hPa Calm     91% 0 mm
05:14 15.4 °C 14 °C 1005 hPa Calm     91% 0 mm
05:19 15.4 °C 14 °C 1005 hPa Calm     91% 0 mm
05:24 15.4 °C 14 °C 1005 hPa Calm     91% 0 mm
05:29 15.4 °C 14 °C 1005 hPa Calm     91% 0 mm
05:34 15.4 °C 14 °C 1005.3 hPa Calm     91% 0 mm
05:39 15.4 °C 14 °C 1005.3 hPa Calm     91% 0 mm
05:44 15.5 °C 14.1 °C 1005.3 hPa Calm     91% 0 mm
05:49 15.6 °C 14.1 °C 1005.3 hPa Calm     91% 0 mm
05:59 15.6 °C 14.1 °C 1005.6 hPa Calm     91% 0 mm
06:04 15.6 °C 14.1 °C 1005.6 hPa Calm     91% 0 mm
06:09 15.6 °C 14.1 °C 1005.6 hPa Calm     91% 0 mm
06:14 15.6 °C 13.9 °C 1005.6 hPa Calm   1.6 km/h 90% 0 mm
06:19 15.6 °C 13.9 °C 1005.6 hPa Calm   1.6 km/h 90% 0 mm
06:24 15.6 °C 13.9 °C 1005.6 hPa Calm   1.6 km/h 90% 0 mm
06:29 15.6 °C 14 °C 1005.6 hPa Calm     90% 0 mm
06:34 15.6 °C 13.9 °C 1005.6 hPa Calm     90% 0 mm
06:39 15.5 °C 13.9 °C 1006 hPa Calm     90% 0 mm
06:44 15.5 °C 13.9 °C 1006 hPa Calm     90% 0 mm
06:49 15.5 °C 13.9 °C 1006 hPa Calm     90% 0 mm
06:54 15.6 °C 13.9 °C 1006 hPa Calm     90% 0 mm
06:59 15.5 °C 13.9 °C 1006 hPa Calm     90% 0 mm
07:04 15.5 °C 13.9 °C 1006 hPa Calm     90% 0 mm
07:09 15.4 °C 13.8 °C 1006 hPa Calm     90% 0 mm
07:14 15.3 °C 13.7 °C 1006 hPa Calm     90% 0 mm
07:19 15.3 °C 13.7 °C 1006 hPa Calm     90% 0 mm
07:24 15.3 °C 13.7 °C 1006 hPa Calm     90% 0 mm
07:29 15.3 °C 13.7 °C 1006.3 hPa Calm     90% 0 mm
07:34 15.4 °C 13.8 °C 1006.3 hPa Calm   4.8 km/h 90% 0 mm
07:39 15.4 °C 13.8 °C 1006.3 hPa Calm     90% 0 mm
07:44 15.5 °C 13.9 °C 1006.3 hPa Calm     90% 0 mm
07:54 15.6 °C 13.8 °C 1006.3 hPa Calm     89% 0 mm
07:59 15.6 °C 13.8 °C 1006.3 hPa Calm     89% 0 mm
08:04 15.6 °C 13.8 °C 1006.7 hPa Calm     89% 0 mm
08:09 15.7 °C 13.8 °C 1006.7 hPa Calm   3.2 km/h 89% 0 mm
08:14 15.8 °C 13.9 °C 1006.7 hPa Calm   3.2 km/h 89% 0 mm
08:19 15.8 °C 13.9 °C 1006.7 hPa Calm   1.6 km/h 89% 0 mm
08:24 15.8 °C 14 °C 1006.7 hPa Calm   4.8 km/h 89% 0 mm
08:29 15.9 °C 13.9 °C 1006.3 hPa Calm   3.2 km/h 88% 0 mm
08:34 15.9 °C 13.9 °C 1006.3 hPa Calm   4.8 km/h 88% 0 mm
08:39 15.9 °C 13.9 °C 1006.3 hPa Calm   3.2 km/h 88% 0 mm
08:44 16 °C 14 °C 1006.3 hPa Calm   3.2 km/h 88% 0 mm
08:49 16.1 °C 13.9 °C 1006.3 hPa West 1.6 km/h 3.2 km/h 87% 0 mm
08:54 16.2 °C 14 °C 1006 hPa West 3.2 km/h 4.8 km/h 87% 0 mm
08:59 16.2 °C 14.1 °C 1006.3 hPa WNW 3.2 km/h 4.8 km/h 87% 0 mm
09:04 16.2 °C 13.9 °C 1006 hPa Calm   4.8 km/h 86% 0 mm
09:09 16.3 °C 14 °C 1006.3 hPa Calm   6.4 km/h 86% 0 mm
09:14 16.4 °C 14.1 °C 1006.3 hPa WNW 1.6 km/h 4.8 km/h 86% 0 mm
09:19 16.5 °C 14.2 °C 1006.3 hPa WNW 1.6 km/h 6.4 km/h 86% 0 mm
09:24 16.6 °C 14.2 °C 1006.3 hPa WNW 3.2 km/h 6.4 km/h 86% 0 mm
09:29 16.6 °C 14.2 °C 1006.3 hPa NW 1.6 km/h 6.4 km/h 86% 0 mm
09:34 16.6 °C 14 °C 1006.3 hPa West 3.2 km/h 6.4 km/h 85% 0 mm
09:39 16.7 °C 14.1 °C 1006.3 hPa WNW 3.2 km/h 6.4 km/h 85% 0 mm
09:44 16.8 °C 14.2 °C 1006 hPa West 3.2 km/h 6.4 km/h 85% 0 mm
09:49 17 °C 14.3 °C 1006.3 hPa West 1.6 km/h 4.8 km/h 84% 0 mm
09:54 17.1 °C 14.4 °C 1006.3 hPa Calm   3.2 km/h 84% 0 mm
09:59 17.3 °C 14.4 °C 1006.3 hPa Calm     83% 0 mm
10:04 17.2 °C 13.9 °C 1006.3 hPa Calm   4.8 km/h 81% 0 mm
10:09 17.2 °C 13.9 °C 1006.3 hPa Calm   4.8 km/h 81% 0 mm
10:14 17.2 °C 13.9 °C 1006.3 hPa Calm     81% 0 mm
10:19 17.2 °C 13.5 °C 1006.3 hPa Calm     79% 0 mm
10:24 17.3 °C 13.8 °C 1006 hPa Calm     80% 0 mm
10:29 17.4 °C 13.7 °C 1005.6 hPa Calm     79% 0 mm
10:34 17.7 °C 14.1 °C 1006 hPa Calm     79% 0 mm
10:49 18.1 °C 13.8 °C 1006.3 hPa Calm   4.8 km/h 76% 0 mm
10:54 18.2 °C 13.5 °C 1006.3 hPa Calm     74% 0 mm
10:59 18.2 °C 13.3 °C 1006.3 hPa Calm     73% 0 mm
11:04 18.3 °C 13.2 °C 1006.3 hPa Calm     72% 0 mm
11:09 18.7 °C 13.7 °C 1006.3 hPa Calm   6.4 km/h 73% 0 mm
11:14 18.8 °C 12.9 °C 1006.3 hPa South 1.6 km/h 6.4 km/h 69% 0 mm
11:19 18.8 °C 13.2 °C 1006.3 hPa SSW 1.6 km/h 4.8 km/h 70% 0 mm
11:24 19.1 °C 13.5 °C 1006.3 hPa SSW 1.6 km/h 6.4 km/h 70% 0 mm
11:29 19.2 °C 13.2 °C 1006.3 hPa SSW 3.2 km/h 6.4 km/h 68% 0 mm
11:34 19.4 °C 13.4 °C 1006.3 hPa Calm   6.4 km/h 68% 0 mm
11:39 19.8 °C 13.5 °C 1006.3 hPa South 1.6 km/h 6.4 km/h 67% 0 mm
11:44 19.7 °C 13.7 °C 1006.3 hPa South 3.2 km/h 8 km/h 68% 0 mm
11:49 19.6 °C 12.8 °C 1006.3 hPa WSW 4.8 km/h 8 km/h 65% 0 mm
11:54 19.7 °C 12.4 °C 1006.3 hPa Calm   9.7 km/h 63% 0 mm
11:59 19.8 °C 13.8 °C 1006.3 hPa WSW 4.8 km/h 8 km/h 68% 0 mm
12:04 20.2 °C 12.9 °C 1006.3 hPa West 3.2 km/h 6.4 km/h 63% 0 mm
12:09 19.9 °C 12.6 °C 1006.3 hPa SW 1.6 km/h 6.4 km/h 63% 0 mm
12:14 20.2 °C 12.9 °C 1006.3 hPa SW 3.2 km/h 11.3 km/h 63% 0 mm
12:19 20.1 °C 12.8 °C 1006 hPa SW 3.2 km/h 11.3 km/h 63% 0 mm
12:24 20.2 °C 13.2 °C 1006 hPa SSW 3.2 km/h 8 km/h 64% 0 mm
12:29 20.4 °C 13.7 °C 1006 hPa South 3.2 km/h 8 km/h 65% 0 mm
12:34 20.8 °C 13.3 °C 1006 hPa SSW 3.2 km/h 8 km/h 62% 0 mm
12:39 21.1 °C 12.2 °C 1006 hPa WNW 8 km/h 9.7 km/h 57% 0 mm
12:44 20.9 °C 12.3 °C 1006.3 hPa SSW 6.4 km/h 8 km/h 58% 0 mm
12:49 21.1 °C 12.7 °C 1006 hPa West 6.4 km/h 11.3 km/h 59% 0 mm
12:54 20.8 °C 12.2 °C 1006 hPa WSW 1.6 km/h 11.3 km/h 58% 0 mm
12:59 20.9 °C 12.8 °C 1006.3 hPa SW 11.3 km/h 12.9 km/h 60% 0 mm
13:04 21 °C 12.4 °C 1006.3 hPa WSW 4.8 km/h 12.9 km/h 58% 0 mm
13:09 20.9 °C 12.1 °C 1006.3 hPa SW 11.3 km/h 14.5 km/h 57% 0 mm
13:14 21.2 °C 12.6 °C 1006.3 hPa WSW 6.4 km/h 14.5 km/h 58% 0 mm
13:19 21.3 °C 12.4 °C 1006.3 hPa WSW 6.4 km/h 12.9 km/h 57% 0 mm
13:24 21.2 °C 12.8 °C 1006.3 hPa WSW 6.4 km/h 12.9 km/h 59% 0 mm
13:29 21.1 °C 13.1 °C 1006.3 hPa SW 14.5 km/h 14.5 km/h 60% 0 mm
13:34 21.1 °C 13.5 °C 1006.3 hPa NW 4.8 km/h 19.3 km/h 62% 0 mm
13:39 21.2 °C 12.9 °C 1006.3 hPa West 6.4 km/h 11.3 km/h 59% 0 mm
13:44 21.6 °C 13.3 °C 1006.3 hPa WSW 6.4 km/h 14.5 km/h 59% 0 mm
13:49 21.4 °C 13.1 °C 1006.3 hPa SW 8 km/h 16.1 km/h 59% 0 mm
13:54 21.2 °C 13.9 °C 1006.3 hPa SW 8 km/h 16.1 km/h 63% 0 mm
13:59 21.1 °C 13.2 °C 1006.3 hPa SW 4.8 km/h 16.1 km/h 61% 0 mm
14:04 21.2 °C 13.8 °C 1006.3 hPa South 9.7 km/h 12.9 km/h 63% 0 mm
14:09 21.6 °C 14 °C 1006.3 hPa SW 9.7 km/h 11.3 km/h 62% 0 mm
14:14 21.3 °C 13.5 °C 1006.3 hPa SW 8 km/h 22.5 km/h 61% 0 mm
14:19 21.4 °C 13.8 °C 1006.3 hPa SW 8 km/h 22.5 km/h 62% 0 mm
14:24 21.3 °C 13.9 °C 1006.3 hPa West 6.4 km/h 19.3 km/h 63% 0 mm
14:29 21.4 °C 14.1 °C 1006.3 hPa WSW 6.4 km/h 19.3 km/h 63% 0 mm
14:34 21.5 °C 14.2 °C 1006.3 hPa SSW 11.3 km/h 24.1 km/h 63% 0 mm
14:39 21.2 °C 13.9 °C 1006.3 hPa WSW 9.7 km/h 19.3 km/h 63% 0 mm
14:44 21.3 °C 14.2 °C 1006.3 hPa WSW 11.3 km/h 19.3 km/h 64% 0 mm
14:49 21.4 °C 14.3 °C 1006.3 hPa WSW 9.7 km/h 17.7 km/h 64% 0 mm
14:54 21.3 °C 14 °C 1006.3 hPa SW 9.7 km/h 24.1 km/h 63% 0 mm
14:59 21.6 °C 14.4 °C 1006.3 hPa SW 9.7 km/h 24.1 km/h 64% 0 mm
15:04 21.7 °C 14.6 °C 1006.3 hPa WSW 9.7 km/h 22.5 km/h 64% 0 mm
15:09 21.3 °C 14.5 °C 1006.3 hPa SW 9.7 km/h 22.5 km/h 65% 0 mm
15:14 21.1 °C 13.8 °C 1006.3 hPa WSW 11.3 km/h 24.1 km/h 63% 0 mm
15:19 21.2 °C 14.4 °C 1006.3 hPa South 11.3 km/h 19.3 km/h 65% 0 mm
15:24 21.2 °C 13.6 °C 1006.3 hPa West 4.8 km/h 20.9 km/h 62% 0 mm
15:29 21.3 °C 14 °C 1006.3 hPa WSW 11.3 km/h 20.9 km/h 63% 0 mm
15:34 21.6 °C 13.9 °C 1006.3 hPa West 6.4 km/h 20.9 km/h 62% 0 mm
15:39 20.9 °C 13.6 °C 1006 hPa WSW 9.7 km/h 25.7 km/h 63% 0 mm
15:44 21 °C 13.9 °C 1006.3 hPa SW 9.7 km/h 25.7 km/h 64% 0 mm
15:49 21.3 °C 13.9 °C 1006.3 hPa WSW 9.7 km/h 17.7 km/h 63% 0 mm
15:54 21.3 °C 13.7 °C 1006.3 hPa WSW 9.7 km/h 19.3 km/h 62% 0 mm
15:59 21.1 °C 13.3 °C 1006.3 hPa SW 9.7 km/h 24.1 km/h 61% 0 mm
16:04 21.2 °C 14.1 °C 1006.3 hPa SW 11.3 km/h 24.1 km/h 64% 0 mm
16:09 21.2 °C 13.6 °C 1006.3 hPa SW 9.7 km/h 24.1 km/h 62% 0 mm
16:14 20.8 °C 13.5 °C 1006.3 hPa WSW 9.7 km/h 24.1 km/h 63% 0 mm
16:19 21 °C 13.9 °C 1006.7 hPa WSW 9.7 km/h 24.1 km/h 64% 0 mm
16:24 21.2 °C 14.3 °C 1006.7 hPa WSW 6.4 km/h 16.1 km/h 65% 0 mm
16:29 21.1 °C 14.3 °C 1006.7 hPa SW 8 km/h 24.1 km/h 65% 0 mm
16:34 20.7 °C 14.1 °C 1006.7 hPa WSW 12.9 km/h 24.1 km/h 66% 0 mm
16:39 20.6 °C 14.2 °C 1006.3 hPa SW 4.8 km/h 14.5 km/h 67% 0 mm
16:44 20.4 °C 14.3 °C 1006.7 hPa WSW 9.7 km/h 17.7 km/h 68% 0 mm
16:49 20.4 °C 14.3 °C 1006.7 hPa SW 9.7 km/h 17.7 km/h 68% 0 mm
16:54 20.3 °C 14 °C 1006.7 hPa SW 9.7 km/h 22.5 km/h 67% 0 mm
16:59 20.2 °C 14.1 °C 1006.3 hPa SW 12.9 km/h 22.5 km/h 68% 0 mm
17:04 20.3 °C 14.2 °C 1006.7 hPa WSW 6.4 km/h 19.3 km/h 68% 0 mm
17:09 20.2 °C 13.7 °C 1006.3 hPa SW 12.9 km/h 19.3 km/h 66% 0 mm
17:14 20.4 °C 14.1 °C 1006.3 hPa WSW 11.3 km/h 22.5 km/h 67% 0 mm
17:19 20.5 °C 14.2 °C 1006.3 hPa WSW 9.7 km/h 22.5 km/h 67% 0 mm
17:24 20.4 °C 14.1 °C 1006.3 hPa WSW 9.7 km/h 19.3 km/h 67% 0 mm
17:29 20.1 °C 14 °C 1006.7 hPa West 8 km/h 19.3 km/h 68% 0 mm
17:34 20.1 °C 14.4 °C 1006.7 hPa WSW 14.5 km/h 20.9 km/h 70% 0 mm
17:39 19.9 °C 14.5 °C 1006.7 hPa WSW 9.7 km/h 20.9 km/h 71% 0 mm
17:44 19.8 °C 14.2 °C 1006.7 hPa SW 11.3 km/h 22.5 km/h 70% 0 mm
17:49 19.8 °C 14 °C 1006.7 hPa WSW 9.7 km/h 22.5 km/h 69% 0 mm
17:54 20.1 °C 13.5 °C 1007 hPa WSW 9.7 km/h 19.3 km/h 66% 0 mm
17:59 19.8 °C 13.3 °C 1006.7 hPa West 9.7 km/h 22.5 km/h 66% 0 mm
18:04 19.8 °C 13.2 °C 1007 hPa WSW 6.4 km/h 20.9 km/h 66% 0 mm
18:09 20.1 °C 13.5 °C 1007 hPa SW 8 km/h 19.3 km/h 66% 0 mm
18:14 20 °C 13.4 °C 1007 hPa SW 3.2 km/h 14.5 km/h 66% 0 mm
18:19 19.9 °C 13.6 °C 1007 hPa WSW 8 km/h 17.7 km/h 67% 0 mm
18:24 19.7 °C 13.6 °C 1007 hPa WSW 8 km/h 17.7 km/h 68% 0 mm
18:29 19.5 °C 13.7 °C 1007 hPa SW 8 km/h 16.1 km/h 69% 0 mm
18:34 19.3 °C 13.7 °C 1007 hPa SW 6.4 km/h 14.5 km/h 70% 0 mm
18:39 19.1 °C 13.7 °C 1007 hPa SSW 4.8 km/h 12.9 km/h 71% 0 mm
18:44 19.2 °C 13.8 °C 1007 hPa WSW 6.4 km/h 9.7 km/h 71% 0 mm
18:49 19.1 °C 13.7 °C 1007 hPa WSW 6.4 km/h 12.9 km/h 71% 0 mm
18:54 19.1 °C 13.5 °C 1007.3 hPa West 9.7 km/h 12.9 km/h 70% 0 mm
18:59 19.1 °C 13.5 °C 1007.3 hPa WSW 4.8 km/h 11.3 km/h 70% 0 mm
19:04 19.1 °C 13.2 °C 1007.3 hPa NNW 3.2 km/h 17.7 km/h 69% 0 mm
19:09 19 °C 13.4 °C 1007.3 hPa West 4.8 km/h 14.5 km/h 70% 0 mm
19:14 18.8 °C 13.4 °C 1007.3 hPa SW 4.8 km/h 8 km/h 71% 0 mm
19:19 18.8 °C 13.4 °C 1007.3 hPa WSW 4.8 km/h 9.7 km/h 71% 0 mm
19:24 18.8 °C 13.7 °C 1007.3 hPa WSW 4.8 km/h 14.5 km/h 72% 0 mm
19:29 18.7 °C 13.8 °C 1007.3 hPa SW 6.4 km/h 16.1 km/h 73% 0 mm
19:34 18.7 °C 14 °C 1007.3 hPa SW 8 km/h 16.1 km/h 74% 0 mm
19:39 18.6 °C 14.1 °C 1007.3 hPa SW 6.4 km/h 12.9 km/h 75% 0 mm
19:49 18.6 °C 14.2 °C 1007.3 hPa SSW 6.4 km/h 12.9 km/h 76% 0 mm
19:54 18.6 °C 14.3 °C 1007.3 hPa WSW 4.8 km/h 11.3 km/h 76% 0 mm
19:59 18.7 °C 14.3 °C 1007.3 hPa WSW 3.2 km/h 11.3 km/h 76% 0 mm
20:04 18.7 °C 14.2 °C 1007.7 hPa WSW 1.6 km/h 8 km/h 75% 0 mm
20:09 18.7 °C 14.2 °C 1007.7 hPa West 4.8 km/h 8 km/h 75% 0 mm
20:14 18.7 °C 14.2 °C 1007.7 hPa WSW 1.6 km/h 8 km/h 75% 0 mm
20:19 18.7 °C 13.9 °C 1007.7 hPa WSW 3.2 km/h 12.9 km/h 74% 0 mm
20:24 18.6 °C 13.9 °C 1008 hPa WSW 3.2 km/h 12.9 km/h 74% 0 mm
20:29 18.5 °C 13.8 °C 1008 hPa SW 3.2 km/h 9.7 km/h 74% 0 mm
20:34 18.6 °C 13.6 °C 1008 hPa WSW 3.2 km/h 9.7 km/h 73% 0 mm
20:39 18.5 °C 13.6 °C 1008 hPa SW 8 km/h 8 km/h 73% 0 mm
20:44 18.6 °C 13.4 °C 1008 hPa SW 3.2 km/h 12.9 km/h 72% 0 mm
20:49 18.5 °C 13.6 °C 1008.4 hPa WSW 3.2 km/h 8 km/h 73% 0 mm
20:54 18.4 °C 13.5 °C 1008.4 hPa WSW 3.2 km/h 8 km/h 73% 0 mm
20:59 18.3 °C 13.6 °C 1008.4 hPa WSW 1.6 km/h 8 km/h 74% 0 mm
21:04 18.1 °C 13.6 °C 1008.4 hPa Calm   4.8 km/h 75% 0 mm
21:09 18 °C 13.5 °C 1008.4 hPa WSW 1.6 km/h 6.4 km/h 75% 0 mm
21:14 17.9 °C 13.7 °C 1008.4 hPa Calm   3.2 km/h 76% 0 mm
21:19 17.8 °C 13.5 °C 1008.7 hPa Calm   3.2 km/h 76% 0 mm
21:24 17.5 °C 13.4 °C 1008.7 hPa Calm   3.2 km/h 77% 0 mm
21:29 17.3 °C 13.4 °C 1008.7 hPa Calm     78% 0 mm
21:34 17.2 °C 13.5 °C 1008.7 hPa Calm     79% 0 mm
21:39 17.2 °C 13.5 °C 1008.7 hPa Calm     79% 0 mm
21:44 17.2 °C 13.7 °C 1008.7 hPa Calm   4.8 km/h 80% 0 mm
21:49 17.3 °C 13.8 °C 1008.7 hPa Calm   1.6 km/h 80% 0 mm
21:54 17.3 °C 13.8 °C 1009 hPa Calm   1.6 km/h 80% 0 mm
21:59 17.4 °C 14.2 °C 1009 hPa Calm     81% 0 mm
22:04 17.3 °C 14.2 °C 1009 hPa Calm     82% 0 mm
22:09 17.2 °C 14.1 °C 1009 hPa Calm     82% 0.25 mm
22:14 17.1 °C 14.2 °C 1009 hPa Calm     83% 0.25 mm
22:19 17.1 °C 14.3 °C 1009 hPa Calm     84% 0.25 mm
22:24 16.9 °C 14.3 °C 1009 hPa Calm     85% 0.25 mm
22:29 16.7 °C 14.2 °C 1009 hPa Calm     85% 0.25 mm
22:34 16.4 °C 14.1 °C 1009 hPa Calm     86% 0.25 mm
22:39 16.2 °C 14.1 °C 1009 hPa Calm     87% 0.25 mm
22:44 16.1 °C 13.9 °C 1009 hPa Calm     87% 0.25 mm
22:49 15.9 °C 13.8 °C 1009 hPa Calm     87% 0.25 mm
22:54 15.8 °C 13.5 °C 1009 hPa Calm     86% 0.25 mm
22:59 15.8 °C 13.3 °C 1009 hPa Calm     85% 0.25 mm
23:04 15.8 °C 13.3 °C 1009 hPa Calm     85% 0.25 mm
23:09 15.6 °C 13.2 °C 1009 hPa Calm     86% 0 mm
23:14 15.4 °C 12.9 °C 1009 hPa Calm     85% 0 mm
23:19 15.3 °C 13 °C 1009 hPa Calm     86% 0 mm
23:24 15.2 °C 12.8 °C 1009.4 hPa Calm     86% 0 mm
23:29 15.1 °C 12.8 °C 1009.4 hPa Calm     86% 0 mm
23:34 14.9 °C 12.7 °C 1009.4 hPa Calm     87% 0 mm
23:44 14.6 °C 12.4 °C 1009.4 hPa Calm     87% 0 mm
23:49 14.6 °C 12.7 °C 1009.4 hPa Calm     88% 0 mm
23:54 14.6 °C 12.7 °C 1009.4 hPa Calm     88% 0 mm
23:59 14.4 °C 12.5 °C 1009.4 hPa Calm     88% 0 mm
Buffalo, New York, USA
Compliments of Weather Underground - 2.5 mb